createdAt,value
2023-01-19T00:01:43.053Z,89.28
2023-01-19T00:04:11.773Z,89.21
2023-01-19T00:06:40.846Z,88.59
2023-01-19T00:09:09.553Z,89.11
2023-01-19T00:11:38.755Z,89.08
2023-01-19T00:14:07.446Z,88.80
2023-01-19T00:16:36.208Z,88.76
2023-01-19T00:19:04.891Z,88.70
2023-01-19T00:21:33.744Z,89.18
2023-01-19T00:24:02.374Z,89.76
2023-01-19T00:26:31.095Z,89.31
2023-01-19T00:28:59.700Z,89.67
2023-01-19T00:31:30.195Z,90.56
2023-01-19T00:33:58.859Z,90.36
2023-01-19T00:36:27.913Z,90.83
2023-01-19T00:38:56.520Z,91.36
2023-01-19T00:41:43.864Z,90.68
2023-01-19T00:44:12.655Z,90.78
2023-01-19T00:46:41.307Z,91.51
2023-01-19T00:49:09.990Z,90.76
2023-01-19T00:51:38.654Z,91.15
2023-01-19T00:54:09.201Z,90.17
2023-01-19T00:56:38.012Z,91.61
2023-01-19T00:59:06.679Z,91.79
2023-01-19T01:01:45.556Z,91.22
2023-01-19T01:04:15.617Z,90.48
2023-01-19T01:06:44.354Z,91.08
2023-01-19T01:09:12.962Z,89.96
2023-01-19T01:11:43.456Z,90.79
2023-01-19T01:14:13.478Z,91.17
2023-01-19T01:16:42.401Z,90.47
2023-01-19T01:19:11.022Z,89.78
2023-01-19T01:21:39.793Z,89.59
2023-01-19T01:24:10.568Z,89.37
2023-01-19T01:26:39.435Z,90.37
2023-01-19T01:29:08.837Z,90.31
2023-01-19T01:31:37.513Z,90.23
2023-01-19T01:34:06.185Z,90.36
2023-01-19T01:36:35.690Z,90.44
2023-01-19T01:39:05.166Z,89.67
2023-01-19T01:41:34.201Z,90.11
2023-01-19T01:44:24.638Z,89.77
2023-01-19T01:46:53.599Z,89.66
2023-01-19T01:49:22.280Z,89.31
2023-01-19T01:51:54.673Z,89.40
2023-01-19T01:54:33.824Z,89.87
2023-01-19T01:57:12.527Z,89.21
2023-01-19T01:59:47.971Z,89.92
2023-01-19T02:02:40.535Z,90.00
2023-01-19T02:05:33.655Z,89.65
2023-01-19T02:08:29.185Z,90.49
2023-01-19T02:11:17.712Z,89.28
2023-01-19T02:13:47.899Z,89.45
2023-01-19T02:16:17.827Z,89.60
2023-01-19T02:18:46.702Z,89.17
2023-01-19T02:21:44.794Z,89.36
2023-01-19T02:24:13.814Z,90.03
2023-01-19T02:26:48.100Z,89.92
2023-01-19T02:29:25.220Z,90.45
2023-01-19T02:31:55.882Z,90.97
2023-01-19T02:34:24.656Z,92.76
2023-01-19T02:37:06.881Z,91.70
2023-01-19T02:39:50.943Z,92.19
2023-01-19T02:42:29.858Z,92.55
2023-01-19T02:45:00.139Z,91.83
2023-01-19T02:47:39.126Z,91.03
2023-01-19T02:50:43.756Z,90.61
2023-01-19T02:53:30.660Z,90.97
2023-01-19T02:56:29.547Z,90.25
2023-01-19T02:59:22.886Z,89.86
2023-01-19T03:02:36.593Z,88.97
2023-01-19T03:05:46.051Z,88.13
2023-01-19T03:08:25.392Z,87.64
2023-01-19T03:11:11.791Z,86.78
2023-01-19T03:14:09.062Z,86.29
2023-01-19T03:16:45.928Z,86.04
2023-01-19T03:19:36.686Z,85.50
2023-01-19T03:22:13.770Z,85.83
2023-01-19T03:24:46.279Z,86.20
2023-01-19T03:27:42.655Z,85.96
2023-01-19T03:30:21.643Z,86.17
2023-01-19T03:33:05.078Z,86.27
2023-01-19T03:35:39.178Z,85.74
2023-01-19T03:38:15.673Z,85.92
2023-01-19T03:40:45.790Z,85.78
2023-01-19T03:43:16.976Z,85.63
2023-01-19T03:45:46.950Z,85.63
2023-01-19T03:48:15.701Z,85.61
2023-01-19T03:50:44.417Z,85.36
2023-01-19T03:53:17.061Z,85.15
2023-01-19T03:55:48.036Z,85.34
2023-01-19T03:58:16.723Z,85.06
2023-01-19T04:00:45.589Z,85.29
2023-01-19T04:03:18.154Z,85.36
2023-01-19T04:05:46.968Z,85.41
2023-01-19T04:08:16.991Z,85.40
2023-01-19T04:10:45.752Z,85.31
2023-01-19T04:13:14.501Z,85.58
2023-01-19T04:15:43.229Z,85.60
2023-01-19T04:18:12.430Z,86.08
2023-01-19T04:20:41.704Z,85.92
2023-01-19T04:23:10.636Z,85.81
2023-01-19T04:25:39.192Z,85.80
2023-01-19T04:28:07.873Z,86.12
2023-01-19T04:34:01.532Z,86.47
2023-01-19T04:36:30.426Z,86.71
2023-01-19T04:38:59.318Z,87.03
2023-01-19T04:41:29.659Z,87.39
2023-01-19T04:43:59.083Z,86.95
2023-01-19T04:46:27.784Z,87.33
2023-01-19T04:49:05.320Z,87.42
2023-01-19T04:51:35.008Z,87.43
2023-01-19T04:54:04.244Z,87.21
2023-01-19T04:56:32.996Z,86.75
2023-01-19T04:59:02.177Z,86.99
2023-01-19T05:01:31.081Z,87.09
2023-01-19T05:04:00.780Z,87.03
2023-01-19T05:06:29.542Z,86.73
2023-01-19T05:08:58.650Z,86.65
2023-01-19T05:11:27.560Z,86.77
2023-01-19T05:13:56.277Z,87.06
2023-01-19T05:16:25.310Z,86.61
2023-01-19T05:18:54.762Z,86.57
2023-01-19T05:21:23.893Z,86.40
2023-01-19T05:23:53.211Z,86.40
2023-01-19T05:26:22.115Z,86.35
2023-01-19T05:28:50.854Z,85.91
2023-01-19T05:31:19.816Z,85.93
2023-01-19T05:33:49.266Z,85.96
2023-01-19T05:36:18.314Z,85.84
2023-01-19T05:38:47.321Z,85.63
2023-01-19T05:41:16.123Z,85.63
2023-01-19T05:43:46.432Z,85.73
2023-01-19T05:46:15.672Z,85.69
2023-01-19T05:48:45.335Z,85.56
2023-01-19T05:51:14.074Z,85.48
2023-01-19T05:53:43.652Z,85.60
2023-01-19T05:56:12.253Z,85.61
2023-01-19T05:58:41.052Z,85.73
2023-01-19T06:01:10.876Z,85.65
2023-01-19T06:03:39.993Z,85.67
2023-01-19T06:06:08.613Z,85.68
2023-01-19T06:08:37.208Z,85.78
2023-01-19T06:11:07.593Z,85.80
2023-01-19T06:13:36.295Z,85.69
2023-01-19T06:16:05.231Z,85.62
2023-01-19T06:18:34.390Z,86.14
2023-01-19T06:21:06.274Z,85.86
2023-01-19T06:23:35.773Z,85.77
2023-01-19T06:26:05.055Z,85.87
2023-01-19T06:28:33.793Z,85.72
2023-01-19T06:31:02.611Z,85.52
2023-01-19T06:33:31.697Z,85.56
2023-01-19T06:36:00.570Z,85.57
2023-01-19T06:38:29.344Z,85.50
2023-01-19T06:40:58.832Z,85.71
2023-01-19T06:43:27.659Z,85.57
2023-01-19T06:45:56.760Z,85.52
2023-01-19T06:48:26.133Z,85.54
2023-01-19T06:50:59.517Z,85.65
2023-01-19T06:53:30.651Z,85.27
2023-01-19T06:56:02.072Z,85.35
2023-01-19T06:58:31.942Z,85.15
2023-01-19T07:01:06.300Z,85.09
2023-01-19T07:03:38.826Z,84.96
2023-01-19T07:06:07.554Z,84.92
2023-01-19T07:08:37.489Z,84.68
2023-01-19T07:11:26.319Z,84.51
2023-01-19T07:13:58.053Z,84.50
2023-01-19T07:16:26.960Z,84.23
2023-01-19T07:18:56.009Z,84.00
2023-01-19T07:21:24.826Z,83.97
2023-01-19T07:23:53.570Z,83.72
2023-01-19T07:26:25.143Z,83.66
2023-01-19T07:28:54.100Z,83.60
2023-01-19T07:31:24.149Z,83.33
2023-01-19T07:33:53.082Z,83.27
2023-01-19T07:36:21.790Z,82.95
2023-01-19T07:38:50.457Z,82.74
2023-01-19T07:41:19.353Z,82.46
2023-01-19T07:43:47.943Z,82.25
2023-01-19T07:46:16.595Z,82.13
2023-01-19T07:48:45.306Z,82.23
2023-01-19T07:51:18.207Z,81.42
2023-01-19T07:53:47.223Z,81.98
2023-01-19T07:56:15.855Z,82.06
2023-01-19T07:58:44.460Z,82.28
2023-01-19T08:01:14.527Z,81.62
2023-01-19T08:03:43.591Z,81.75
2023-01-19T08:06:26.468Z,81.18
2023-01-19T08:08:55.373Z,80.56
2023-01-19T08:11:49.543Z,80.23
2023-01-19T08:14:18.538Z,79.91
2023-01-19T08:16:47.109Z,79.42
2023-01-19T08:19:15.801Z,78.81
2023-01-19T08:21:46.365Z,78.01
2023-01-19T08:24:21.711Z,78.27
2023-01-19T08:26:50.397Z,77.90
2023-01-19T08:29:19.161Z,77.98
2023-01-19T08:31:47.978Z,77.61
2023-01-19T08:34:16.727Z,77.57
2023-01-19T08:36:45.277Z,77.18
2023-01-19T08:39:14.743Z,76.79
2023-01-19T08:41:43.735Z,76.63
2023-01-19T08:44:12.447Z,76.61
2023-01-19T08:46:41.287Z,76.09
2023-01-19T08:49:10.380Z,75.76
2023-01-19T08:51:39.210Z,75.46
2023-01-19T08:54:08.115Z,75.53
2023-01-19T08:56:37.087Z,74.94
2023-01-19T08:59:11.304Z,74.10
2023-01-19T09:01:41.638Z,73.44
2023-01-19T09:04:10.686Z,73.06
2023-01-19T09:06:39.444Z,72.93
2023-01-19T09:09:08.026Z,72.70
2023-01-19T09:11:36.988Z,71.72
2023-01-19T09:14:06.270Z,71.32
2023-01-19T09:16:34.917Z,70.58
2023-01-19T09:19:03.600Z,70.67
2023-01-19T09:21:32.210Z,70.86
2023-01-19T09:24:00.945Z,69.75
2023-01-19T09:26:31.654Z,70.55
2023-01-19T09:29:01.759Z,70.36
2023-01-19T09:31:30.605Z,69.22
2023-01-19T09:33:59.418Z,68.34
2023-01-19T09:36:28.058Z,68.13
2023-01-19T09:38:56.726Z,68.35
2023-01-19T09:41:26.558Z,68.28
2023-01-19T09:44:00.572Z,68.13
2023-01-19T09:46:41.636Z,68.40
2023-01-19T09:49:28.679Z,67.58
2023-01-19T09:51:58.283Z,66.55
2023-01-19T09:54:41.141Z,66.11
2023-01-19T09:57:14.905Z,66.32
2023-01-19T10:03:21.293Z,67.10
2023-01-19T10:05:58.971Z,66.91
2023-01-19T10:08:52.820Z,66.93
2023-01-19T10:11:52.641Z,66.49
2023-01-19T10:14:42.099Z,66.29
2023-01-19T10:17:27.606Z,65.50
2023-01-19T10:19:58.960Z,65.79
2023-01-19T10:22:29.289Z,65.85
2023-01-19T10:25:06.178Z,65.94
2023-01-19T10:27:37.735Z,66.10
2023-01-19T10:30:10.451Z,65.76
2023-01-19T10:32:41.318Z,65.95
2023-01-19T10:35:26.128Z,66.03
2023-01-19T10:38:01.793Z,65.08
2023-01-19T10:41:05.294Z,65.04
2023-01-19T10:43:44.375Z,64.77
2023-01-19T10:46:22.557Z,64.77
2023-01-19T10:48:54.339Z,64.19
2023-01-19T10:51:23.550Z,64.32
2023-01-19T10:54:02.589Z,63.38
2023-01-19T10:56:36.387Z,63.05
2023-01-19T10:59:07.852Z,62.16
2023-01-19T11:01:37.593Z,61.86
2023-01-19T11:04:29.876Z,61.75
2023-01-19T11:07:34.184Z,61.32
2023-01-19T11:10:19.949Z,61.34
2023-01-19T11:13:24.354Z,60.63
2023-01-19T11:16:16.663Z,60.49
2023-01-19T11:18:47.343Z,60.42
2023-01-19T11:21:17.772Z,60.07
2023-01-19T11:23:56.170Z,60.01
2023-01-19T11:27:03.163Z,59.73
2023-01-19T11:29:32.177Z,59.20
2023-01-19T11:32:19.726Z,58.58
2023-01-19T11:34:49.500Z,57.88
2023-01-19T11:37:21.498Z,57.53
2023-01-19T11:39:55.230Z,57.46
2023-01-19T11:42:26.095Z,56.52
2023-01-19T11:45:07.131Z,54.89
2023-01-19T11:47:52.905Z,54.42
2023-01-19T11:50:39.276Z,53.60
2023-01-19T11:53:20.066Z,53.63
2023-01-19T11:56:15.392Z,53.26
2023-01-19T11:58:48.117Z,53.58
2023-01-19T12:01:25.464Z,53.71
2023-01-19T12:04:27.841Z,53.22
2023-01-19T12:07:00.011Z,52.25
2023-01-19T12:09:42.945Z,52.61
2023-01-19T12:17:07.365Z,51.10
2023-01-19T12:19:54.982Z,51.40
2023-01-19T12:22:24.713Z,51.62
2023-01-19T12:25:54.924Z,51.67
2023-01-19T12:28:33.085Z,50.64
2023-01-19T12:31:02.964Z,51.16
2023-01-19T12:33:39.492Z,51.59
2023-01-19T12:36:17.312Z,51.68
2023-01-19T12:38:54.119Z,51.49
2023-01-19T12:41:37.301Z,51.74
2023-01-19T12:44:11.969Z,51.87
2023-01-19T12:46:52.542Z,51.39
2023-01-19T12:49:39.186Z,51.41
2023-01-19T12:52:35.410Z,50.77
2023-01-19T12:55:20.935Z,51.86
2023-01-19T12:58:10.900Z,52.12
2023-01-19T13:00:42.949Z,51.66
2023-01-19T13:03:17.688Z,51.79
2023-01-19T13:05:54.403Z,51.96
2023-01-19T13:08:30.745Z,51.73
2023-01-19T13:11:02.556Z,51.89
2023-01-19T13:13:36.940Z,51.66
2023-01-19T13:16:25.120Z,51.65
2023-01-19T13:19:16.709Z,51.82
2023-01-19T13:21:49.845Z,51.46
2023-01-19T13:24:22.774Z,51.70
2023-01-19T13:26:54.312Z,51.63
2023-01-19T13:29:43.609Z,51.31
2023-01-19T13:32:21.287Z,51.69
2023-01-19T13:34:59.629Z,52.06
2023-01-19T13:37:42.209Z,51.98
2023-01-19T13:40:41.712Z,52.03
2023-01-19T13:43:32.568Z,52.26
2023-01-19T13:46:01.714Z,52.79
2023-01-19T13:48:32.572Z,52.87
2023-01-19T13:51:06.132Z,52.91
2023-01-19T13:53:35.598Z,53.14
2023-01-19T13:56:16.276Z,52.81
2023-01-19T13:58:58.166Z,53.60
2023-01-19T14:01:29.378Z,53.39
2023-01-19T14:04:00.076Z,53.62
2023-01-19T14:06:40.852Z,53.89
2023-01-19T14:09:20.502Z,53.92
2023-01-19T14:12:17.746Z,54.12
2023-01-19T14:14:48.428Z,54.82
2023-01-19T14:17:29.674Z,55.16
2023-01-19T14:20:05.071Z,55.59
2023-01-19T14:22:45.516Z,56.19
2023-01-19T14:25:34.880Z,56.66
2023-01-19T14:28:35.773Z,57.23
2023-01-19T14:31:26.593Z,57.57
2023-01-19T14:33:58.596Z,58.08
2023-01-19T14:36:36.326Z,58.19
2023-01-19T14:39:06.265Z,58.57
2023-01-19T14:41:52.437Z,58.98
2023-01-19T14:44:36.657Z,59.30
2023-01-19T14:47:07.708Z,59.69
2023-01-19T14:49:38.411Z,60.01
2023-01-19T14:52:22.098Z,60.33
2023-01-19T14:54:51.556Z,60.28
2023-01-19T14:57:20.348Z,60.51
2023-01-19T14:59:50.514Z,61.01
2023-01-19T15:02:19.517Z,61.37
2023-01-19T15:04:49.300Z,62.15
2023-01-19T15:07:24.286Z,62.18
2023-01-19T15:09:53.085Z,62.44
2023-01-19T15:12:25.448Z,63.29
2023-01-19T15:14:54.090Z,63.60
2023-01-19T15:17:25.792Z,64.10
2023-01-19T15:19:56.640Z,65.62
2023-01-19T15:22:28.648Z,65.53
2023-01-19T15:25:00.199Z,66.16
2023-01-19T15:27:29.517Z,66.05
2023-01-19T15:29:59.925Z,66.85
2023-01-19T15:32:28.683Z,66.95
2023-01-19T15:34:57.371Z,67.68
2023-01-19T15:37:26.011Z,67.80
2023-01-19T15:39:54.631Z,67.17
2023-01-19T15:42:23.161Z,68.02
2023-01-19T15:44:53.340Z,68.02
2023-01-19T15:47:22.205Z,68.15
2023-01-19T15:49:51.348Z,69.57
2023-01-19T15:52:20.162Z,68.94
2023-01-19T15:54:48.843Z,69.55
2023-01-19T15:57:17.623Z,69.58
2023-01-19T15:59:46.243Z,69.54
2023-01-19T16:02:15.074Z,69.57
2023-01-19T16:04:48.363Z,70.24
2023-01-19T16:07:17.052Z,69.40
2023-01-19T16:09:45.884Z,69.72
2023-01-19T16:12:14.467Z,69.72
2023-01-19T16:14:43.180Z,69.26
2023-01-19T16:17:12.344Z,70.03
2023-01-19T16:19:41.178Z,70.49
2023-01-19T16:22:12.277Z,70.11
2023-01-19T16:24:41.055Z,70.41
2023-01-19T16:27:09.794Z,71.16
2023-01-19T16:29:38.604Z,70.86
2023-01-19T16:32:07.406Z,70.69
2023-01-19T16:34:36.169Z,71.05
2023-01-19T16:37:04.920Z,70.81
2023-01-19T16:39:33.953Z,71.73
2023-01-19T16:42:02.763Z,71.49
2023-01-19T16:44:31.443Z,71.71
2023-01-19T16:47:00.230Z,71.69
2023-01-19T16:49:29.125Z,72.49
2023-01-19T16:51:58.790Z,72.00
2023-01-19T16:54:29.459Z,72.05
2023-01-19T16:56:59.053Z,71.86
2023-01-19T16:59:29.396Z,72.23
2023-01-19T17:01:58.339Z,71.85
2023-01-19T17:04:27.542Z,72.19
2023-01-19T17:06:56.243Z,72.44
2023-01-19T17:09:24.959Z,72.82
2023-01-19T17:11:53.756Z,72.76
2023-01-19T17:14:22.321Z,73.10
2023-01-19T17:16:51.186Z,73.33
2023-01-19T17:19:22.263Z,72.77
2023-01-19T17:21:51.149Z,72.89
2023-01-19T17:24:19.946Z,73.46
2023-01-19T17:26:49.084Z,72.95
2023-01-19T17:29:18.437Z,72.98
2023-01-19T17:31:49.858Z,73.14
2023-01-19T17:34:18.791Z,73.17
2023-01-19T17:36:47.452Z,73.26
2023-01-19T17:39:17.060Z,73.37
2023-01-19T17:41:45.867Z,73.54
2023-01-19T17:44:14.388Z,74.02
2023-01-19T17:46:42.909Z,73.77
2023-01-19T17:49:11.818Z,73.68
2023-01-19T17:51:40.729Z,74.04
2023-01-19T17:54:11.012Z,74.43
2023-01-19T17:56:41.503Z,74.47
2023-01-19T17:59:10.295Z,74.48
2023-01-19T18:01:40.539Z,74.65
2023-01-19T18:04:09.729Z,74.26
2023-01-19T18:06:38.553Z,74.15
2023-01-19T18:09:08.061Z,74.41
2023-01-19T18:11:36.730Z,74.26
2023-01-19T18:14:07.265Z,74.40
2023-01-19T18:16:36.119Z,74.31
2023-01-19T18:19:04.759Z,74.79
2023-01-19T18:21:33.356Z,74.42
2023-01-19T18:24:05.203Z,74.39
2023-01-19T18:26:36.555Z,74.52
2023-01-19T18:29:05.554Z,74.93
2023-01-19T18:31:34.464Z,74.81
2023-01-19T18:34:03.787Z,74.66
2023-01-19T18:36:32.822Z,74.65
2023-01-19T18:39:01.943Z,74.17
2023-01-19T18:41:30.891Z,74.17
2023-01-19T18:44:00.030Z,74.28
2023-01-19T18:46:28.857Z,74.03
2023-01-19T18:48:57.606Z,74.10
2023-01-19T18:51:26.527Z,74.24
2023-01-19T18:53:57.628Z,74.76
2023-01-19T18:56:27.025Z,75.17
2023-01-19T18:58:55.838Z,75.34
2023-01-19T19:01:33.185Z,75.36
2023-01-19T19:04:03.350Z,75.37
2023-01-19T19:06:31.887Z,75.47
2023-01-19T19:09:00.357Z,75.71
2023-01-19T19:11:29.037Z,75.66
2023-01-19T19:14:01.526Z,75.30
2023-01-19T19:16:31.675Z,75.28
2023-01-19T19:19:02.126Z,75.16
2023-01-19T19:21:30.859Z,75.36
2023-01-19T19:23:59.512Z,75.46
2023-01-19T19:26:29.074Z,75.72
2023-01-19T19:28:57.888Z,76.01
2023-01-19T19:31:32.450Z,76.03
2023-01-19T19:34:01.492Z,76.06
2023-01-19T19:36:30.258Z,76.02
2023-01-19T19:39:00.185Z,76.64
2023-01-19T19:41:32.449Z,76.15
2023-01-19T19:44:01.464Z,76.36
2023-01-19T19:46:32.592Z,76.22
2023-01-19T19:49:02.114Z,76.71
2023-01-19T19:51:31.729Z,77.19
2023-01-19T19:54:02.345Z,76.94
2023-01-19T19:56:34.510Z,77.01
2023-01-19T19:59:03.758Z,77.19
2023-01-19T20:01:33.991Z,76.81
2023-01-19T20:04:12.386Z,76.87
2023-01-19T20:06:51.105Z,77.06
2023-01-19T20:09:24.786Z,77.72
2023-01-19T20:11:53.748Z,77.37
2023-01-19T20:14:24.173Z,77.48
2023-01-19T20:16:54.572Z,77.94
2023-01-19T20:19:23.292Z,77.41
2023-01-19T20:21:52.376Z,77.37
2023-01-19T20:24:21.290Z,77.52
2023-01-19T20:26:53.327Z,77.61
2023-01-19T20:29:22.496Z,77.77
2023-01-19T20:31:58.355Z,77.47
2023-01-19T20:34:33.731Z,77.09
2023-01-19T20:37:04.977Z,76.83
2023-01-19T20:39:35.619Z,76.50
2023-01-19T20:42:05.821Z,75.92
2023-01-19T20:44:34.550Z,75.07
2023-01-19T20:47:06.537Z,73.26
2023-01-19T20:49:37.801Z,71.50
2023-01-19T20:52:06.591Z,70.08
2023-01-19T20:54:35.289Z,69.27
2023-01-19T20:57:04.014Z,67.91
2023-01-19T20:59:34.339Z,67.23
2023-01-19T21:02:03.434Z,66.91
2023-01-19T21:04:32.171Z,66.18
2023-01-19T21:07:00.731Z,66.24
2023-01-19T21:09:29.406Z,66.45
2023-01-19T21:11:58.340Z,66.02
2023-01-19T21:14:27.418Z,65.76
2023-01-19T21:16:58.581Z,65.44
2023-01-19T21:19:27.461Z,65.46
2023-01-19T21:21:56.063Z,65.21
2023-01-19T21:24:24.845Z,65.25
2023-01-19T21:26:53.513Z,65.28
2023-01-19T21:29:22.965Z,64.60
2023-01-19T21:31:57.887Z,64.85
2023-01-19T21:34:26.633Z,64.76
2023-01-19T21:36:55.223Z,64.43
2023-01-19T21:39:24.199Z,64.65
2023-01-19T21:41:52.933Z,64.57
2023-01-19T21:44:22.608Z,65.11
2023-01-19T21:46:55.699Z,65.08
2023-01-19T21:49:24.297Z,64.99
2023-01-19T21:53:42.143Z,65.05
2023-01-19T21:56:16.912Z,64.85
2023-01-19T21:58:49.691Z,64.92
2023-01-19T22:01:18.505Z,65.12
2023-01-19T22:03:47.244Z,66.17
2023-01-19T22:06:15.867Z,66.79
2023-01-19T22:08:46.721Z,68.10
2023-01-19T22:11:18.617Z,69.09
2023-01-19T22:13:47.860Z,69.95
2023-01-19T22:16:19.466Z,70.28
2023-01-19T22:18:59.627Z,70.50
2023-01-19T22:21:35.890Z,70.62
2023-01-19T22:24:05.326Z,71.75
2023-01-19T22:26:35.212Z,72.74
2023-01-19T22:29:06.570Z,73.68
2023-01-19T22:31:35.390Z,73.53
2023-01-19T22:34:04.809Z,73.86
2023-01-19T22:36:34.185Z,73.79
2023-01-19T22:39:10.098Z,73.36
2023-01-19T22:41:43.587Z,72.54
2023-01-19T22:44:17.100Z,73.25
2023-01-19T22:46:45.734Z,73.64
2023-01-19T22:49:17.971Z,73.13
2023-01-19T22:51:47.124Z,73.30
2023-01-19T22:54:15.891Z,72.90
2023-01-19T22:56:45.936Z,72.82
2023-01-19T22:59:14.806Z,73.12
2023-01-19T23:01:44.611Z,73.69
2023-01-19T23:04:16.067Z,73.75
2023-01-19T23:06:50.380Z,74.13
2023-01-19T23:09:19.676Z,74.83
2023-01-19T23:11:50.820Z,74.35
2023-01-19T23:14:22.614Z,74.65
2023-01-19T23:16:51.466Z,75.43
2023-01-19T23:19:20.001Z,76.14
2023-01-19T23:21:52.880Z,74.83
2023-01-19T23:24:21.653Z,76.47
2023-01-19T23:26:51.117Z,76.58
2023-01-19T23:29:19.977Z,76.42
2023-01-19T23:31:50.358Z,77.13
2023-01-19T23:34:18.864Z,76.87
2023-01-19T23:36:47.436Z,76.11
2023-01-19T23:39:23.009Z,75.88
2023-01-19T23:41:51.590Z,75.69
2023-01-19T23:44:20.491Z,77.20
2023-01-19T23:46:49.103Z,77.88
2023-01-19T23:49:18.314Z,77.89
2023-01-19T23:51:46.907Z,78.58
2023-01-19T23:54:15.457Z,78.32
2023-01-19T23:56:44.083Z,77.42
2023-01-19T23:59:16.654Z,77.97
